Filion, Michigan
Current Conditions -  °F | °C
As of 10:35 AM on Wednesday 26 Nov 2014 (Local Time) from KBAX Reporting Station
Overcast Overcast  
Wind Chill: 31°   Ceiling: 3600
Heat Index: 31°   Visibility: 10mi
Dew Point: 23°   Wind: 3mph
Humidity: 72%   Direction: 330°NNW
Pressure: 30.18"   Gusts: NA
Location:  43.9°N, 83°W
Report Text: KBAX 261535Z AUTO 33003KT 10SM OVC036 M01/M05 A3018 RMK AO2 T10071051
Loading
Personal Weather Stations






























Interactive Weather Map New forecast layout! Learn more

10-Day Weather Forecast

Advertisements
Track Severe Weather on mobile